Terminal Aerodrome Forecast
Issued by NWS

Current Version | Previous Version | Graphics & Text | Print | Product List | Glossary On
Versions: 1 2 3 4 5 6 7 8 9 10 11 12 13 14 15 16 17 18 19 20 21 22
000
FTUS41 KILN 272332
TAFLCK
TAF
KLCK 272332Z 2800/2824 VRB03KT P6SM SCT250
     FM280900 VRB03KT 5SM BR SCT025
     FM281300 02003KT P6SM SCT120
     FM281600 02006KT P6SM SCT040=

USA.gov is the U.S. government's official web portal to all federal, state and local government web resources and services.